sensor_id;sensor_type;location;lat;lon;timestamp;P1;durP1;ratioP1;P2;durP2;ratioP2
8568;SDS011;4322;51.104;-4.162;2022-11-20T00:01:04;1.40;;;1.40;;
8568;SDS011;4322;51.104;-4.162;2022-11-20T00:03:33;1.97;;;1.97;;
8568;SDS011;4322;51.104;-4.162;2022-11-20T00:06:02;1.90;;;1.90;;
8568;SDS011;4322;51.104;-4.162;2022-11-20T00:08:30;2.10;;;2.10;;
8568;SDS011;4322;51.104;-4.162;2022-11-20T00:11:03;1.93;;;1.93;;
8568;SDS011;4322;51.104;-4.162;2022-11-20T00:13:36;1.90;;;1.90;;
8568;SDS011;4322;51.104;-4.162;2022-11-20T00:16:06;2.40;;;2.30;;
8568;SDS011;4322;51.104;-4.162;2022-11-20T00:18:36;2.30;;;2.20;;
8568;SDS011;4322;51.104;-4.162;2022-11-20T00:21:04;2.10;;;2.10;;
8568;SDS011;4322;51.104;-4.162;2022-11-20T00:23:34;1.87;;;1.87;;
8568;SDS011;4322;51.104;-4.162;2022-11-20T00:26:04;2.27;;;2.17;;
8568;SDS011;4322;51.104;-4.162;2022-11-20T00:28:33;2.00;;;2.00;;
8568;SDS011;4322;51.104;-4.162;2022-11-20T00:31:02;1.70;;;1.70;;
8568;SDS011;4322;51.104;-4.162;2022-11-20T00:33:31;2.43;;;2.33;;
8568;SDS011;4322;51.104;-4.162;2022-11-20T00:35:59;2.00;;;2.00;;
8568;SDS011;4322;51.104;-4.162;2022-11-20T00:38:28;2.00;;;2.00;;
8568;SDS011;4322;51.104;-4.162;2022-11-20T00:40:57;1.90;;;1.90;;
8568;SDS011;4322;51.104;-4.162;2022-11-20T00:43:26;2.23;;;2.13;;
8568;SDS011;4322;51.104;-4.162;2022-11-20T00:45:58;2.10;;;2.10;;
8568;SDS011;4322;51.104;-4.162;2022-11-20T00:48:26;1.70;;;1.70;;
8568;SDS011;4322;51.104;-4.162;2022-11-20T00:50:55;2.10;;;2.10;;
8568;SDS011;4322;51.104;-4.162;2022-11-20T00:53:23;2.30;;;2.20;;
8568;SDS011;4322;51.104;-4.162;2022-11-20T00:55:55;1.30;;;1.30;;
8568;SDS011;4322;51.104;-4.162;2022-11-20T00:58:24;1.90;;;1.90;;
8568;SDS011;4322;51.104;-4.162;2022-11-20T01:01:00;2.00;;;2.00;;
8568;SDS011;4322;51.104;-4.162;2022-11-20T01:03:30;1.60;;;1.60;;
8568;SDS011;4322;51.104;-4.162;2022-11-20T01:05:59;1.07;;;1.07;;
8568;SDS011;4322;51.104;-4.162;2022-11-20T01:08:29;1.80;;;1.80;;
8568;SDS011;4322;51.104;-4.162;2022-11-20T01:10:59;1.97;;;1.97;;
8568;SDS011;4322;51.104;-4.162;2022-11-20T01:13:28;1.63;;;1.63;;
8568;SDS011;4322;51.104;-4.162;2022-11-20T01:16:09;1.50;;;1.50;;
8568;SDS011;4322;51.104;-4.162;2022-11-20T01:18:39;1.50;;;1.50;;
8568;SDS011;4322;51.104;-4.162;2022-11-20T01:21:09;1.10;;;1.10;;
8568;SDS011;4322;51.104;-4.162;2022-11-20T01:23:38;1.60;;;1.60;;
8568;SDS011;4322;51.104;-4.162;2022-11-20T01:26:09;1.80;;;1.80;;
8568;SDS011;4322;51.104;-4.162;2022-11-20T01:28:38;1.80;;;1.80;;
8568;SDS011;4322;51.104;-4.162;2022-11-20T01:31:12;2.10;;;2.10;;
8568;SDS011;4322;51.104;-4.162;2022-11-20T01:33:41;2.00;;;2.00;;
8568;SDS011;4322;51.104;-4.162;2022-11-20T01:36:10;2.20;;;2.10;;
8568;SDS011;4322;51.104;-4.162;2022-11-20T01:38:39;1.80;;;1.80;;
8568;SDS011;4322;51.104;-4.162;2022-11-20T01:41:08;2.03;;;2.03;;
8568;SDS011;4322;51.104;-4.162;2022-11-20T01:43:37;2.00;;;2.00;;
8568;SDS011;4322;51.104;-4.162;2022-11-20T01:46:05;2.00;;;2.00;;
8568;SDS011;4322;51.104;-4.162;2022-11-20T01:48:47;2.40;;;2.30;;
8568;SDS011;4322;51.104;-4.162;2022-11-20T01:51:23;2.10;;;2.10;;
8568;SDS011;4322;51.104;-4.162;2022-11-20T01:53:57;1.90;;;1.90;;
8568;SDS011;4322;51.104;-4.162;2022-11-20T01:56:28;2.60;;;2.50;;
8568;SDS011;4322;51.104;-4.162;2022-11-20T01:59:01;2.50;;;2.40;;
8568;SDS011;4322;51.104;-4.162;2022-11-20T02:01:34;2.10;;;2.10;;
8568;SDS011;4322;51.104;-4.162;2022-11-20T02:04:02;1.27;;;1.27;;
8568;SDS011;4322;51.104;-4.162;2022-11-20T02:06:31;0.70;;;0.70;;
8568;SDS011;4322;51.104;-4.162;2022-11-20T02:09:03;0.50;;;0.50;;
8568;SDS011;4322;51.104;-4.162;2022-11-20T02:11:31;0.60;;;0.60;;
8568;SDS011;4322;51.104;-4.162;2022-11-20T02:13:59;0.60;;;0.60;;
8568;SDS011;4322;51.104;-4.162;2022-11-20T02:16:27;0.70;;;0.70;;
8568;SDS011;4322;51.104;-4.162;2022-11-20T02:19:00;0.50;;;0.50;;
8568;SDS011;4322;51.104;-4.162;2022-11-20T02:21:33;0.90;;;0.90;;
8568;SDS011;4322;51.104;-4.162;2022-11-20T02:24:07;0.60;;;0.60;;
8568;SDS011;4322;51.104;-4.162;2022-11-20T02:26:39;0.60;;;0.60;;
8568;SDS011;4322;51.104;-4.162;2022-11-20T02:29:12;0.60;;;0.60;;
8568;SDS011;4322;51.104;-4.162;2022-11-20T02:31:43;0.60;;;0.60;;
8568;SDS011;4322;51.104;-4.162;2022-11-20T02:34:11;0.60;;;0.60;;
8568;SDS011;4322;51.104;-4.162;2022-11-20T02:36:39;0.50;;;0.50;;
8568;SDS011;4322;51.104;-4.162;2022-11-20T02:39:11;0.60;;;0.60;;
8568;SDS011;4322;51.104;-4.162;2022-11-20T02:41:44;0.50;;;0.50;;
8568;SDS011;4322;51.104;-4.162;2022-11-20T02:44:12;0.50;;;0.50;;
8568;SDS011;4322;51.104;-4.162;2022-11-20T02:46:40;0.60;;;0.60;;
8568;SDS011;4322;51.104;-4.162;2022-11-20T02:49:08;0.57;;;0.57;;
8568;SDS011;4322;51.104;-4.162;2022-11-20T02:51:36;0.50;;;0.50;;
8568;SDS011;4322;51.104;-4.162;2022-11-20T02:54:04;0.57;;;0.57;;
8568;SDS011;4322;51.104;-4.162;2022-11-20T02:56:33;0.50;;;0.50;;
8568;SDS011;4322;51.104;-4.162;2022-11-20T02:59:01;0.67;;;0.67;;
8568;SDS011;4322;51.104;-4.162;2022-11-20T03:01:30;0.60;;;0.60;;
8568;SDS011;4322;51.104;-4.162;2022-11-20T03:03:58;0.60;;;0.60;;
8568;SDS011;4322;51.104;-4.162;2022-11-20T03:06:26;0.60;;;0.60;;
8568;SDS011;4322;51.104;-4.162;2022-11-20T03:08:54;0.60;;;0.60;;
8568;SDS011;4322;51.104;-4.162;2022-11-20T03:11:22;0.50;;;0.50;;
8568;SDS011;4322;51.104;-4.162;2022-11-20T03:13:52;0.60;;;0.60;;
8568;SDS011;4322;51.104;-4.162;2022-11-20T03:16:21;0.70;;;0.70;;
8568;SDS011;4322;51.104;-4.162;2022-11-20T03:18:51;0.60;;;0.60;;
8568;SDS011;4322;51.104;-4.162;2022-11-20T03:21:20;0.80;;;0.80;;
8568;SDS011;4322;51.104;-4.162;2022-11-20T03:23:48;0.60;;;0.60;;
8568;SDS011;4322;51.104;-4.162;2022-11-20T03:26:28;0.60;;;0.60;;
8568;SDS011;4322;51.104;-4.162;2022-11-20T03:28:58;0.87;;;0.87;;
8568;SDS011;4322;51.104;-4.162;2022-11-20T03:31:28;0.80;;;0.80;;
8568;SDS011;4322;51.104;-4.162;2022-11-20T03:33:58;0.60;;;0.60;;
8568;SDS011;4322;51.104;-4.162;2022-11-20T03:36:27;0.73;;;0.73;;
8568;SDS011;4322;51.104;-4.162;2022-11-20T03:38:55;0.70;;;0.70;;
8568;SDS011;4322;51.104;-4.162;2022-11-20T03:41:25;0.90;;;0.90;;
8568;SDS011;4322;51.104;-4.162;2022-11-20T03:43:56;0.70;;;0.70;;
8568;SDS011;4322;51.104;-4.162;2022-11-20T03:46:27;0.80;;;0.80;;
8568;SDS011;4322;51.104;-4.162;2022-11-20T03:48:56;0.60;;;0.60;;
8568;SDS011;4322;51.104;-4.162;2022-11-20T03:51:25;0.70;;;0.70;;
8568;SDS011;4322;51.104;-4.162;2022-11-20T03:53:55;0.70;;;0.70;;
8568;SDS011;4322;51.104;-4.162;2022-11-20T03:56:25;0.80;;;0.80;;
8568;SDS011;4322;51.104;-4.162;2022-11-20T03:58:54;0.67;;;0.67;;
8568;SDS011;4322;51.104;-4.162;2022-11-20T04:01:24;0.60;;;0.60;;
8568;SDS011;4322;51.104;-4.162;2022-11-20T04:03:54;0.80;;;0.80;;
8568;SDS011;4322;51.104;-4.162;2022-11-20T04:06:24;0.80;;;0.80;;
8568;SDS011;4322;51.104;-4.162;2022-11-20T04:08:53;0.80;;;0.80;;
8568;SDS011;4322;51.104;-4.162;2022-11-20T04:11:23;0.60;;;0.60;;
8568;SDS011;4322;51.104;-4.162;2022-11-20T04:13:53;0.80;;;0.80;;
8568;SDS011;4322;51.104;-4.162;2022-11-20T04:16:24;1.00;;;1.00;;
8568;SDS011;4322;51.104;-4.162;2022-11-20T04:18:54;0.70;;;0.70;;
8568;SDS011;4322;51.104;-4.162;2022-11-20T04:21:23;0.80;;;0.80;;
8568;SDS011;4322;51.104;-4.162;2022-11-20T04:23:52;0.90;;;0.90;;
8568;SDS011;4322;51.104;-4.162;2022-11-20T04:26:21;0.87;;;0.87;;
8568;SDS011;4322;51.104;-4.162;2022-11-20T04:28:50;1.07;;;1.07;;
8568;SDS011;4322;51.104;-4.162;2022-11-20T04:31:19;0.80;;;0.80;;
8568;SDS011;4322;51.104;-4.162;2022-11-20T04:33:50;1.00;;;1.00;;
8568;SDS011;4322;51.104;-4.162;2022-11-20T04:36:19;1.10;;;1.10;;
8568;SDS011;4322;51.104;-4.162;2022-11-20T04:38:50;0.83;;;0.83;;
8568;SDS011;4322;51.104;-4.162;2022-11-20T04:41:23;0.90;;;0.90;;
8568;SDS011;4322;51.104;-4.162;2022-11-20T04:43:53;1.10;;;1.10;;
8568;SDS011;4322;51.104;-4.162;2022-11-20T04:46:26;1.10;;;1.10;;
8568;SDS011;4322;51.104;-4.162;2022-11-20T04:48:57;1.03;;;1.03;;
8568;SDS011;4322;51.104;-4.162;2022-11-20T04:51:26;1.20;;;1.20;;
8568;SDS011;4322;51.104;-4.162;2022-11-20T04:53:54;1.20;;;1.20;;
8568;SDS011;4322;51.104;-4.162;2022-11-20T04:56:22;1.10;;;1.10;;
8568;SDS011;4322;51.104;-4.162;2022-11-20T04:58:51;1.10;;;1.10;;
8568;SDS011;4322;51.104;-4.162;2022-11-20T05:01:19;1.20;;;1.20;;
8568;SDS011;4322;51.104;-4.162;2022-11-20T05:03:49;1.13;;;1.13;;
8568;SDS011;4322;51.104;-4.162;2022-11-20T05:06:20;1.20;;;1.20;;
8568;SDS011;4322;51.104;-4.162;2022-11-20T05:08:48;1.30;;;1.30;;
8568;SDS011;4322;51.104;-4.162;2022-11-20T05:11:18;1.13;;;1.13;;
8568;SDS011;4322;51.104;-4.162;2022-11-20T05:13:47;1.30;;;1.30;;
8568;SDS011;4322;51.104;-4.162;2022-11-20T05:16:17;1.30;;;1.30;;
8568;SDS011;4322;51.104;-4.162;2022-11-20T05:18:46;1.30;;;1.30;;
8568;SDS011;4322;51.104;-4.162;2022-11-20T05:21:14;1.20;;;1.20;;
8568;SDS011;4322;51.104;-4.162;2022-11-20T05:23:44;1.30;;;1.30;;
8568;SDS011;4322;51.104;-4.162;2022-11-20T05:26:14;1.40;;;1.40;;
8568;SDS011;4322;51.104;-4.162;2022-11-20T05:28:49;1.30;;;1.30;;
8568;SDS011;4322;51.104;-4.162;2022-11-20T05:31:18;1.40;;;1.40;;
8568;SDS011;4322;51.104;-4.162;2022-11-20T05:33:53;1.20;;;1.20;;
8568;SDS011;4322;51.104;-4.162;2022-11-20T05:36:21;1.43;;;1.43;;
8568;SDS011;4322;51.104;-4.162;2022-11-20T05:38:51;1.20;;;1.20;;
8568;SDS011;4322;51.104;-4.162;2022-11-20T05:41:26;1.30;;;1.30;;
8568;SDS011;4322;51.104;-4.162;2022-11-20T05:43:55;1.30;;;1.30;;
8568;SDS011;4322;51.104;-4.162;2022-11-20T05:46:24;1.30;;;1.30;;
8568;SDS011;4322;51.104;-4.162;2022-11-20T05:48:54;1.40;;;1.40;;
8568;SDS011;4322;51.104;-4.162;2022-11-20T05:51:23;1.20;;;1.20;;
8568;SDS011;4322;51.104;-4.162;2022-11-20T05:53:57;1.20;;;1.20;;
8568;SDS011;4322;51.104;-4.162;2022-11-20T05:56:25;1.30;;;1.30;;
8568;SDS011;4322;51.104;-4.162;2022-11-20T05:58:53;1.20;;;1.20;;
8568;SDS011;4322;51.104;-4.162;2022-11-20T06:01:22;1.20;;;1.20;;
8568;SDS011;4322;51.104;-4.162;2022-11-20T06:03:51;1.03;;;1.03;;
8568;SDS011;4322;51.104;-4.162;2022-11-20T06:06:20;1.30;;;1.30;;
8568;SDS011;4322;51.104;-4.162;2022-11-20T06:08:49;1.10;;;1.10;;
8568;SDS011;4322;51.104;-4.162;2022-11-20T06:11:18;1.03;;;1.03;;
8568;SDS011;4322;51.104;-4.162;2022-11-20T06:13:47;0.90;;;0.90;;
8568;SDS011;4322;51.104;-4.162;2022-11-20T06:16:16;1.00;;;1.00;;
8568;SDS011;4322;51.104;-4.162;2022-11-20T06:18:46;1.00;;;1.00;;
8568;SDS011;4322;51.104;-4.162;2022-11-20T06:21:14;1.20;;;1.20;;
8568;SDS011;4322;51.104;-4.162;2022-11-20T06:23:44;1.10;;;1.10;;
8568;SDS011;4322;51.104;-4.162;2022-11-20T06:26:14;1.03;;;1.03;;
8568;SDS011;4322;51.104;-4.162;2022-11-20T06:28:45;1.20;;;1.20;;
8568;SDS011;4322;51.104;-4.162;2022-11-20T06:31:14;1.20;;;1.20;;
8568;SDS011;4322;51.104;-4.162;2022-11-20T06:33:44;1.30;;;1.30;;
8568;SDS011;4322;51.104;-4.162;2022-11-20T06:36:13;1.30;;;1.30;;
8568;SDS011;4322;51.104;-4.162;2022-11-20T06:38:43;1.17;;;1.17;;
8568;SDS011;4322;51.104;-4.162;2022-11-20T06:41:13;1.30;;;1.30;;
8568;SDS011;4322;51.104;-4.162;2022-11-20T06:43:42;1.30;;;1.30;;
8568;SDS011;4322;51.104;-4.162;2022-11-20T06:46:13;1.50;;;1.50;;
8568;SDS011;4322;51.104;-4.162;2022-11-20T06:48:43;1.50;;;1.50;;
8568;SDS011;4322;51.104;-4.162;2022-11-20T06:51:12;1.40;;;1.40;;
8568;SDS011;4322;51.104;-4.162;2022-11-20T06:53:40;1.33;;;1.33;;
8568;SDS011;4322;51.104;-4.162;2022-11-20T06:56:09;1.50;;;1.50;;
8568;SDS011;4322;51.104;-4.162;2022-11-20T06:58:37;1.33;;;1.33;;
8568;SDS011;4322;51.104;-4.162;2022-11-20T07:01:07;1.40;;;1.40;;
8568;SDS011;4322;51.104;-4.162;2022-11-20T07:03:38;1.40;;;1.40;;
8568;SDS011;4322;51.104;-4.162;2022-11-20T07:06:08;1.50;;;1.50;;
8568;SDS011;4322;51.104;-4.162;2022-11-20T07:08:36;1.40;;;1.40;;
8568;SDS011;4322;51.104;-4.162;2022-11-20T07:11:05;1.40;;;1.40;;
8568;SDS011;4322;51.104;-4.162;2022-11-20T07:13:34;1.50;;;1.50;;
8568;SDS011;4322;51.104;-4.162;2022-11-20T07:16:03;1.33;;;1.33;;
8568;SDS011;4322;51.104;-4.162;2022-11-20T07:18:33;1.60;;;1.60;;
8568;SDS011;4322;51.104;-4.162;2022-11-20T07:21:03;1.40;;;1.40;;
8568;SDS011;4322;51.104;-4.162;2022-11-20T07:23:34;1.40;;;1.40;;
8568;SDS011;4322;51.104;-4.162;2022-11-20T07:26:02;1.50;;;1.50;;
8568;SDS011;4322;51.104;-4.162;2022-11-20T07:28:31;1.30;;;1.30;;
8568;SDS011;4322;51.104;-4.162;2022-11-20T07:30:59;1.57;;;1.57;;
8568;SDS011;4322;51.104;-4.162;2022-11-20T07:33:28;1.30;;;1.30;;
8568;SDS011;4322;51.104;-4.162;2022-11-20T07:35:57;1.60;;;1.60;;
8568;SDS011;4322;51.104;-4.162;2022-11-20T07:38:27;1.60;;;1.60;;
8568;SDS011;4322;51.104;-4.162;2022-11-20T07:40:56;1.70;;;1.70;;
8568;SDS011;4322;51.104;-4.162;2022-11-20T07:43:28;1.67;;;1.67;;
8568;SDS011;4322;51.104;-4.162;2022-11-20T07:45:56;1.70;;;1.70;;
8568;SDS011;4322;51.104;-4.162;2022-11-20T07:48:27;1.50;;;1.50;;
8568;SDS011;4322;51.104;-4.162;2022-11-20T07:50:55;1.30;;;1.30;;
8568;SDS011;4322;51.104;-4.162;2022-11-20T07:53:24;1.40;;;1.40;;
8568;SDS011;4322;51.104;-4.162;2022-11-20T07:55:54;1.60;;;1.60;;
8568;SDS011;4322;51.104;-4.162;2022-11-20T07:58:22;1.40;;;1.40;;
8568;SDS011;4322;51.104;-4.162;2022-11-20T08:00:50;1.50;;;1.50;;
8568;SDS011;4322;51.104;-4.162;2022-11-20T08:03:18;1.60;;;1.60;;
8568;SDS011;4322;51.104;-4.162;2022-11-20T08:05:51;1.57;;;1.57;;
8568;SDS011;4322;51.104;-4.162;2022-11-20T08:08:19;1.70;;;1.70;;
8568;SDS011;4322;51.104;-4.162;2022-11-20T08:10:47;1.60;;;1.60;;
8568;SDS011;4322;51.104;-4.162;2022-11-20T08:13:17;1.50;;;1.50;;
8568;SDS011;4322;51.104;-4.162;2022-11-20T08:16:02;1.50;;;1.50;;
8568;SDS011;4322;51.104;-4.162;2022-11-20T08:18:31;1.60;;;1.60;;
8568;SDS011;4322;51.104;-4.162;2022-11-20T08:21:01;1.70;;;1.70;;
8568;SDS011;4322;51.104;-4.162;2022-11-20T08:23:31;1.70;;;1.70;;
8568;SDS011;4322;51.104;-4.162;2022-11-20T08:25:59;1.83;;;1.83;;
8568;SDS011;4322;51.104;-4.162;2022-11-20T08:28:28;1.77;;;1.77;;
8568;SDS011;4322;51.104;-4.162;2022-11-20T08:30:57;1.70;;;1.70;;
8568;SDS011;4322;51.104;-4.162;2022-11-20T08:33:27;1.63;;;1.63;;
8568;SDS011;4322;51.104;-4.162;2022-11-20T08:35:58;1.67;;;1.67;;
8568;SDS011;4322;51.104;-4.162;2022-11-20T08:38:28;1.70;;;1.70;;
8568;SDS011;4322;51.104;-4.162;2022-11-20T08:40:57;1.70;;;1.70;;
8568;SDS011;4322;51.104;-4.162;2022-11-20T08:43:44;1.80;;;1.80;;
8568;SDS011;4322;51.104;-4.162;2022-11-20T08:46:13;1.60;;;1.60;;
8568;SDS011;4322;51.104;-4.162;2022-11-20T08:48:41;1.70;;;1.70;;
8568;SDS011;4322;51.104;-4.162;2022-11-20T08:51:10;1.60;;;1.60;;
8568;SDS011;4322;51.104;-4.162;2022-11-20T08:53:38;1.87;;;1.87;;
8568;SDS011;4322;51.104;-4.162;2022-11-20T08:56:08;1.67;;;1.67;;
8568;SDS011;4322;51.104;-4.162;2022-11-20T08:58:37;1.60;;;1.60;;
8568;SDS011;4322;51.104;-4.162;2022-11-20T09:01:27;1.60;;;1.60;;
8568;SDS011;4322;51.104;-4.162;2022-11-20T09:03:56;1.60;;;1.60;;
8568;SDS011;4322;51.104;-4.162;2022-11-20T09:06:26;1.50;;;1.50;;
8568;SDS011;4322;51.104;-4.162;2022-11-20T09:08:54;1.70;;;1.70;;
8568;SDS011;4322;51.104;-4.162;2022-11-20T09:11:28;1.60;;;1.60;;
8568;SDS011;4322;51.104;-4.162;2022-11-20T09:13:57;1.70;;;1.70;;
8568;SDS011;4322;51.104;-4.162;2022-11-20T09:16:25;1.70;;;1.70;;
8568;SDS011;4322;51.104;-4.162;2022-11-20T09:18:54;1.50;;;1.50;;
8568;SDS011;4322;51.104;-4.162;2022-11-20T09:21:42;1.53;;;1.53;;
8568;SDS011;4322;51.104;-4.162;2022-11-20T09:24:10;1.80;;;1.80;;
8568;SDS011;4322;51.104;-4.162;2022-11-20T09:26:38;1.60;;;1.60;;
8568;SDS011;4322;51.104;-4.162;2022-11-20T09:29:07;1.80;;;1.80;;
8568;SDS011;4322;51.104;-4.162;2022-11-20T09:31:35;1.60;;;1.60;;
8568;SDS011;4322;51.104;-4.162;2022-11-20T09:34:04;1.80;;;1.80;;
8568;SDS011;4322;51.104;-4.162;2022-11-20T09:36:33;1.87;;;1.87;;
8568;SDS011;4322;51.104;-4.162;2022-11-20T09:39:01;1.60;;;1.60;;
8568;SDS011;4322;51.104;-4.162;2022-11-20T09:41:36;1.50;;;1.50;;
8568;SDS011;4322;51.104;-4.162;2022-11-20T09:44:20;1.33;;;1.33;;
8568;SDS011;4322;51.104;-4.162;2022-11-20T09:47:00;1.50;;;1.50;;
8568;SDS011;4322;51.104;-4.162;2022-11-20T09:49:49;1.53;;;1.53;;
8568;SDS011;4322;51.104;-4.162;2022-11-20T09:52:29;1.87;;;1.87;;
8568;SDS011;4322;51.104;-4.162;2022-11-20T09:55:06;1.50;;;1.50;;
8568;SDS011;4322;51.104;-4.162;2022-11-20T09:57:38;1.60;;;1.60;;
8568;SDS011;4322;51.104;-4.162;2022-11-20T10:00:11;1.40;;;1.40;;
8568;SDS011;4322;51.104;-4.162;2022-11-20T10:02:42;1.50;;;1.50;;
8568;SDS011;4322;51.104;-4.162;2022-11-20T10:05:18;1.47;;;1.47;;
8568;SDS011;4322;51.104;-4.162;2022-11-20T10:07:51;1.90;;;1.90;;
8568;SDS011;4322;51.104;-4.162;2022-11-20T10:10:28;1.60;;;1.60;;
8568;SDS011;4322;51.104;-4.162;2022-11-20T10:13:11;1.90;;;1.90;;
8568;SDS011;4322;51.104;-4.162;2022-11-20T10:15:52;1.60;;;1.60;;
8568;SDS011;4322;51.104;-4.162;2022-11-20T10:18:32;1.57;;;1.57;;
8568;SDS011;4322;51.104;-4.162;2022-11-20T10:21:13;1.40;;;1.40;;
8568;SDS011;4322;51.104;-4.162;2022-11-20T10:23:57;1.50;;;1.50;;
8568;SDS011;4322;51.104;-4.162;2022-11-20T10:26:43;1.50;;;1.50;;
8568;SDS011;4322;51.104;-4.162;2022-11-20T10:29:21;1.53;;;1.53;;
8568;SDS011;4322;51.104;-4.162;2022-11-20T10:32:00;1.40;;;1.40;;
8568;SDS011;4322;51.104;-4.162;2022-11-20T10:34:31;1.50;;;1.50;;
8568;SDS011;4322;51.104;-4.162;2022-11-20T10:37:05;1.50;;;1.50;;
8568;SDS011;4322;51.104;-4.162;2022-11-20T10:39:40;1.30;;;1.30;;
8568;SDS011;4322;51.104;-4.162;2022-11-20T10:42:14;1.37;;;1.37;;
8568;SDS011;4322;51.104;-4.162;2022-11-20T10:44:47;1.40;;;1.40;;
8568;SDS011;4322;51.104;-4.162;2022-11-20T10:47:32;1.20;;;1.20;;
8568;SDS011;4322;51.104;-4.162;2022-11-20T10:50:01;1.30;;;1.30;;
8568;SDS011;4322;51.104;-4.162;2022-11-20T10:52:37;1.40;;;1.40;;
8568;SDS011;4322;51.104;-4.162;2022-11-20T10:55:18;1.50;;;1.50;;
8568;SDS011;4322;51.104;-4.162;2022-11-20T10:57:58;1.50;;;1.50;;
8568;SDS011;4322;51.104;-4.162;2022-11-20T11:00:31;1.17;;;1.17;;
8568;SDS011;4322;51.104;-4.162;2022-11-20T11:02:59;1.00;;;1.00;;
8568;SDS011;4322;51.104;-4.162;2022-11-20T11:05:33;1.10;;;1.10;;
8568;SDS011;4322;51.104;-4.162;2022-11-20T11:08:10;2.30;;;2.20;;
8568;SDS011;4322;51.104;-4.162;2022-11-20T11:10:43;2.53;;;2.43;;
8568;SDS011;4322;51.104;-4.162;2022-11-20T11:13:19;4.20;;;4.00;;
8568;SDS011;4322;51.104;-4.162;2022-11-20T11:15:48;5.17;;;4.97;;
8568;SDS011;4322;51.104;-4.162;2022-11-20T11:18:23;6.80;;;6.50;;
8568;SDS011;4322;51.104;-4.162;2022-11-20T11:20:54;5.40;;;5.20;;
8568;SDS011;4322;51.104;-4.162;2022-11-20T11:23:29;5.03;;;4.83;;
8568;SDS011;4322;51.104;-4.162;2022-11-20T11:26:00;5.50;;;5.30;;
8568;SDS011;4322;51.104;-4.162;2022-11-20T11:28:33;5.97;;;5.67;;
8568;SDS011;4322;51.104;-4.162;2022-11-20T11:31:02;5.07;;;4.87;;
8568;SDS011;4322;51.104;-4.162;2022-11-20T11:33:30;4.60;;;4.40;;
8568;SDS011;4322;51.104;-4.162;2022-11-20T11:36:00;4.60;;;4.40;;
8568;SDS011;4322;51.104;-4.162;2022-11-20T11:38:34;4.53;;;4.33;;
8568;SDS011;4322;51.104;-4.162;2022-11-20T11:41:04;3.87;;;3.77;;
8568;SDS011;4322;51.104;-4.162;2022-11-20T11:43:35;4.17;;;3.97;;
8568;SDS011;4322;51.104;-4.162;2022-11-20T11:46:30;3.10;;;3.00;;
8568;SDS011;4322;51.104;-4.162;2022-11-20T11:49:01;2.80;;;2.70;;
8568;SDS011;4322;51.104;-4.162;2022-11-20T11:51:46;2.90;;;2.80;;
8568;SDS011;4322;51.104;-4.162;2022-11-20T11:54:26;2.70;;;2.60;;
8568;SDS011;4322;51.104;-4.162;2022-11-20T11:56:58;2.60;;;2.50;;
8568;SDS011;4322;51.104;-4.162;2022-11-20T11:59:43;3.00;;;2.90;;
8568;SDS011;4322;51.104;-4.162;2022-11-20T12:02:24;3.10;;;3.00;;
8568;SDS011;4322;51.104;-4.162;2022-11-20T12:05:00;3.07;;;2.97;;
8568;SDS011;4322;51.104;-4.162;2022-11-20T12:07:38;3.53;;;3.43;;
8568;SDS011;4322;51.104;-4.162;2022-11-20T12:10:21;3.60;;;3.50;;
8568;SDS011;4322;51.104;-4.162;2022-11-20T12:12:58;3.33;;;3.23;;
8568;SDS011;4322;51.104;-4.162;2022-11-20T12:15:30;2.50;;;2.40;;
8568;SDS011;4322;51.104;-4.162;2022-11-20T12:18:00;2.50;;;2.40;;
8568;SDS011;4322;51.104;-4.162;2022-11-20T12:20:33;1.70;;;1.70;;
8568;SDS011;4322;51.104;-4.162;2022-11-20T12:23:09;2.13;;;2.13;;
8568;SDS011;4322;51.104;-4.162;2022-11-20T12:25:48;1.90;;;1.90;;
8568;SDS011;4322;51.104;-4.162;2022-11-20T12:28:30;1.70;;;1.70;;
8568;SDS011;4322;51.104;-4.162;2022-11-20T12:31:12;1.60;;;1.60;;
8568;SDS011;4322;51.104;-4.162;2022-11-20T12:33:57;1.80;;;1.80;;
8568;SDS011;4322;51.104;-4.162;2022-11-20T12:36:40;1.70;;;1.70;;
8568;SDS011;4322;51.104;-4.162;2022-11-20T12:39:19;1.80;;;1.80;;
8568;SDS011;4322;51.104;-4.162;2022-11-20T12:42:04;1.70;;;1.70;;
8568;SDS011;4322;51.104;-4.162;2022-11-20T12:45:04;1.40;;;1.40;;
8568;SDS011;4322;51.104;-4.162;2022-11-20T12:47:46;1.50;;;1.50;;
8568;SDS011;4322;51.104;-4.162;2022-11-20T12:50:32;1.40;;;1.40;;
8568;SDS011;4322;51.104;-4.162;2022-11-20T12:53:36;1.50;;;1.50;;
8568;SDS011;4322;51.104;-4.162;2022-11-20T12:56:15;1.40;;;1.40;;
8568;SDS011;4322;51.104;-4.162;2022-11-20T12:58:56;1.53;;;1.53;;
8568;SDS011;4322;51.104;-4.162;2022-11-20T13:01:37;1.70;;;1.70;;
8568;SDS011;4322;51.104;-4.162;2022-11-20T13:04:16;1.80;;;1.80;;
8568;SDS011;4322;51.104;-4.162;2022-11-20T13:07:09;1.90;;;1.90;;
8568;SDS011;4322;51.104;-4.162;2022-11-20T13:09:40;2.33;;;2.23;;
8568;SDS011;4322;51.104;-4.162;2022-11-20T13:12:13;2.37;;;2.27;;
8568;SDS011;4322;51.104;-4.162;2022-11-20T13:14:53;2.03;;;2.03;;
8568;SDS011;4322;51.104;-4.162;2022-11-20T13:17:30;2.00;;;2.00;;
8568;SDS011;4322;51.104;-4.162;2022-11-20T13:20:05;1.90;;;1.90;;
8568;SDS011;4322;51.104;-4.162;2022-11-20T13:22:43;2.70;;;2.60;;
8568;SDS011;4322;51.104;-4.162;2022-11-20T13:27:57;2.00;;;2.00;;
8568;SDS011;4322;51.104;-4.162;2022-11-20T13:30:28;1.57;;;1.57;;
8568;SDS011;4322;51.104;-4.162;2022-11-20T13:32:58;1.00;;;1.00;;
8568;SDS011;4322;51.104;-4.162;2022-11-20T13:35:34;1.00;;;1.00;;
8568;SDS011;4322;51.104;-4.162;2022-11-20T13:38:05;1.20;;;1.20;;
8568;SDS011;4322;51.104;-4.162;2022-11-20T13:40:35;1.20;;;1.20;;
8568;SDS011;4322;51.104;-4.162;2022-11-20T13:43:14;1.17;;;1.17;;
8568;SDS011;4322;51.104;-4.162;2022-11-20T13:45:55;1.40;;;1.40;;
8568;SDS011;4322;51.104;-4.162;2022-11-20T13:48:26;1.60;;;1.60;;
8568;SDS011;4322;51.104;-4.162;2022-11-20T13:51:03;1.53;;;1.53;;
8568;SDS011;4322;51.104;-4.162;2022-11-20T13:53:53;1.70;;;1.70;;
8568;SDS011;4322;51.104;-4.162;2022-11-20T13:56:34;1.90;;;1.90;;
8568;SDS011;4322;51.104;-4.162;2022-11-20T13:59:16;1.80;;;1.80;;
8568;SDS011;4322;51.104;-4.162;2022-11-20T14:02:05;1.60;;;1.60;;
8568;SDS011;4322;51.104;-4.162;2022-11-20T14:04:42;1.40;;;1.40;;
8568;SDS011;4322;51.104;-4.162;2022-11-20T14:07:12;1.60;;;1.60;;
8568;SDS011;4322;51.104;-4.162;2022-11-20T14:09:48;1.80;;;1.80;;
8568;SDS011;4322;51.104;-4.162;2022-11-20T14:12:18;1.50;;;1.50;;
8568;SDS011;4322;51.104;-4.162;2022-11-20T14:14:47;1.60;;;1.60;;
8568;SDS011;4322;51.104;-4.162;2022-11-20T14:17:20;1.50;;;1.50;;
8568;SDS011;4322;51.104;-4.162;2022-11-20T14:19:49;1.60;;;1.60;;
8568;SDS011;4322;51.104;-4.162;2022-11-20T14:22:19;1.50;;;1.50;;
8568;SDS011;4322;51.104;-4.162;2022-11-20T14:25:05;1.70;;;1.70;;
8568;SDS011;4322;51.104;-4.162;2022-11-20T14:27:35;1.70;;;1.70;;
8568;SDS011;4322;51.104;-4.162;2022-11-20T14:30:06;1.70;;;1.70;;
8568;SDS011;4322;51.104;-4.162;2022-11-20T14:32:43;1.80;;;1.80;;
8568;SDS011;4322;51.104;-4.162;2022-11-20T14:35:14;1.70;;;1.70;;
8568;SDS011;4322;51.104;-4.162;2022-11-20T14:37:48;1.90;;;1.90;;
8568;SDS011;4322;51.104;-4.162;2022-11-20T14:40:23;1.80;;;1.80;;
8568;SDS011;4322;51.104;-4.162;2022-11-20T14:42:54;1.90;;;1.90;;
8568;SDS011;4322;51.104;-4.162;2022-11-20T14:45:22;1.50;;;1.50;;
8568;SDS011;4322;51.104;-4.162;2022-11-20T14:47:52;1.70;;;1.70;;
8568;SDS011;4322;51.104;-4.162;2022-11-20T14:50:23;1.90;;;1.90;;
8568;SDS011;4322;51.104;-4.162;2022-11-20T14:52:54;1.80;;;1.80;;
8568;SDS011;4322;51.104;-4.162;2022-11-20T14:55:27;1.70;;;1.70;;
8568;SDS011;4322;51.104;-4.162;2022-11-20T14:57:57;1.70;;;1.70;;
8568;SDS011;4322;51.104;-4.162;2022-11-20T15:00:28;1.50;;;1.50;;
8568;SDS011;4322;51.104;-4.162;2022-11-20T15:02:59;1.60;;;1.60;;
8568;SDS011;4322;51.104;-4.162;2022-11-20T15:08:14;1.80;;;1.80;;
8568;SDS011;4322;51.104;-4.162;2022-11-20T15:10:46;1.90;;;1.90;;
8568;SDS011;4322;51.104;-4.162;2022-11-20T15:13:17;1.60;;;1.60;;
8568;SDS011;4322;51.104;-4.162;2022-11-20T15:15:52;1.80;;;1.80;;
8568;SDS011;4322;51.104;-4.162;2022-11-20T15:18:24;1.70;;;1.70;;
8568;SDS011;4322;51.104;-4.162;2022-11-20T15:20:57;1.80;;;1.80;;
8568;SDS011;4322;51.104;-4.162;2022-11-20T15:23:28;1.67;;;1.67;;
8568;SDS011;4322;51.104;-4.162;2022-11-20T15:25:56;1.90;;;1.90;;
8568;SDS011;4322;51.104;-4.162;2022-11-20T15:28:27;1.70;;;1.70;;
8568;SDS011;4322;51.104;-4.162;2022-11-20T15:30:58;1.80;;;1.80;;
8568;SDS011;4322;51.104;-4.162;2022-11-20T15:33:30;1.70;;;1.70;;
8568;SDS011;4322;51.104;-4.162;2022-11-20T15:35:58;1.70;;;1.70;;